Time;durP1;ratioP1;P1;durP2;ratioP2;P2;SDS_P1;SDS_P2;PMS_P1;PMS_P2;Temp;Humidity;BMP_temperature;BMP_pressure;BME280_temperature;BME280_humidity;BME280_pressure;Samples;Min_cycle;Max_cycle;Signal;HPM_P1;HPM_P2
2021/01/26 00:00:27;;;;;;;28.35;14.98;;;;;;;0.70;100.00;100386.31;5054018;28;20003;-70
2021/01/26 00:03:11;;;;;;;26.88;14.65;;;;;;;0.71;100.00;100380.16;5052899;28;20433;-70
2021/01/26 00:05:55;;;;;;;30.13;15.07;;;;;;;0.70;100.00;100378.47;5053829;28;20171;-70
2021/01/26 00:08:40;;;;;;;29.55;16.48;;;;;;;0.71;100.00;100382.78;5052988;28;20064;-70
2021/01/26 00:11:24;;;;;;;26.95;15.68;;;;;;;0.66;100.00;100386.56;5039261;28;20055;-70
2021/01/26 00:14:08;;;;;;;30.35;15.32;;;;;;;0.65;100.00;100392.75;5053737;28;20055;-70
2021/01/26 00:16:52;;;;;;;28.20;14.13;;;;;;;0.61;100.00;100394.66;5053006;28;20048;-70
2021/01/26 00:19:36;;;;;;;28.33;15.57;;;;;;;0.61;100.00;100399.91;5053734;28;20128;-71
2021/01/26 00:22:20;;;;;;;28.88;15.85;;;;;;;0.60;100.00;100399.97;5053917;28;20055;-71
2021/01/26 00:25:06;;;;;;;31.10;15.30;;;;;;;0.56;100.00;100396.69;5052633;28;20098;-70
2021/01/26 00:27:50;;;;;;;30.85;14.60;;;;;;;0.57;100.00;100401.00;5038745;28;20048;-71
2021/01/26 00:30:34;;;;;;;;;;;;;;;0.61;100.00;100402.53;5053936;28;20099;-70
2021/01/26 00:33:21;;;;;;;29.33;16.40;;;;;;;0.59;100.00;100401.78;5052717;28;19919;-70
2021/01/26 00:36:05;;;;;;;27.90;15.75;;;;;;;0.57;100.00;100405.41;5052627;28;20056;-71
2021/01/26 00:38:49;;;;;;;27.45;15.07;;;;;;;0.61;100.00;100409.53;5053544;28;20140;-70
2021/01/26 00:41:33;;;;;;;26.45;13.73;;;;;;;0.59;100.00;100417.53;5053498;28;20551;-69
2021/01/26 00:44:18;;;;;;;;;;;;;;;0.61;100.00;100407.78;5052882;28;20083;-71
2021/01/26 00:47:02;;;;;;;27.35;13.80;;;;;;;0.61;100.00;100410.41;5053118;28;19928;-70
2021/01/26 00:49:46;;;;;;;;;;;;;;;0.62;100.00;100413.91;5038793;28;20633;-69
2021/01/26 00:52:29;;;;;;;28.00;14.57;;;;;;;0.60;100.00;100405.22;5052208;28;19919;-71
2021/01/26 00:55:14;;;;;;;25.73;14.65;;;;;;;0.57;100.00;100422.00;5052764;28;20312;-71
2021/01/26 00:57:58;;;;;;;30.85;14.38;;;;;;;0.53;100.00;100425.69;5053413;28;20044;-71
2021/01/26 01:00:43;;;;;;;32.13;16.65;;;;;;;0.53;100.00;100425.69;5052336;28;20131;-71
2021/01/26 01:03:27;;;;;;;28.75;15.32;;;;;;;0.51;100.00;100432.78;5052609;28;20055;-71
2021/01/26 01:06:11;;;;;;;30.90;16.20;;;;;;;0.49;100.00;100434.66;5038139;28;20055;-71
2021/01/26 01:08:54;;;;;;;;;;;;;;;0.52;100.00;100434.47;5052625;28;20087;-71
2021/01/26 01:11:39;;;;;;;29.52;13.73;;;;;;;0.48;100.00;100443.44;5052002;28;19920;-71
2021/01/26 01:14:23;;;;;;;29.48;14.27;;;;;;;0.51;100.00;100438.03;5053193;28;20071;-71
2021/01/26 01:17:08;;;;;;;31.42;17.20;;;;;;;0.50;100.00;100440.72;5052876;28;20046;-71
2021/01/26 01:19:52;;;;;;;33.17;17.05;;;;;;;0.52;100.00;100444.97;5051870;28;20052;-71
2021/01/26 01:22:36;;;;;;;32.13;16.73;;;;;;;0.52;100.00;100444.97;5052155;28;20458;-70
2021/01/26 01:25:21;;;;;;;29.15;12.70;;;;;;;0.58;100.00;100444.69;5052029;28;20505;-71
2021/01/26 01:28:05;;;;;;;30.60;12.05;;;;;;;0.63;100.00;100447.06;5052070;28;20079;-70
2021/01/26 01:30:49;;;;;;;33.42;16.45;;;;;;;0.64;100.00;100446.97;5052038;28;20098;-71
2021/01/26 01:33:33;;;;;;;33.15;17.00;;;;;;;0.60;100.00;100439.34;5052050;28;20116;-70
2021/01/26 01:36:18;;;;;;;31.30;16.65;;;;;;;0.62;100.00;100451.44;5052798;28;20039;-71
2021/01/26 01:39:06;;;;;;;31.13;15.80;;;;;;;0.66;100.00;100447.72;5037724;28;20048;-70
2021/01/26 01:41:50;;;;;;;33.55;16.10;;;;;;;0.59;100.00;100438.50;5051626;28;20102;-70
2021/01/26 01:44:35;;;;;;;35.90;16.80;;;;;;;0.59;100.00;100440.25;5037846;28;20468;-70
2021/01/26 01:47:28;;;;;;;32.42;16.83;;;;;;;0.62;100.00;100445.38;5051562;28;20424;-70
2021/01/26 01:50:22;;;;;;;35.10;17.45;;;;;;;0.56;100.00;100438.66;5051614;28;20470;-70
2021/01/26 01:53:16;;;;;;;20.40;9.38;;;;;;;0.59;100.00;100443.75;5051849;28;20471;-70
2021/01/26 01:56:07;;;;;;;37.35;17.35;;;;;;;0.56;100.00;100441.28;5052536;28;20558;-70
2021/01/26 01:58:59;;;;;;;38.50;19.73;;;;;;;0.57;100.00;100437.75;5051729;28;20087;-70
2021/01/26 02:01:43;;;;;;;32.13;13.18;;;;;;;0.62;100.00;100445.38;5051784;28;20477;-71
2021/01/26 02:04:27;;;;;;;;;;;;;;;0.59;100.00;100428.00;5038121;28;20105;-70
2021/01/26 02:07:11;;;;;;;30.30;13.17;;;;;;;0.64;100.00;100436.47;5055929;28;19919;-70
2021/01/26 02:09:55;;;;;;;39.90;15.70;;;;;;;0.64;100.00;100438.28;5056082;28;20273;-70
2021/01/26 02:12:39;;;;;;;;;;;;;;;0.67;100.00;100432.84;5055721;28;20055;-70
2021/01/26 02:15:24;;;;;;;31.75;10.88;;;;;;;0.68;100.00;100418.81;5055029;28;19923;-70
2021/01/26 02:18:46;;;;;;;34.15;15.73;;;;;;;0.66;100.00;100416.25;5055872;28;20052;-71
2021/01/26 02:21:54;;;;;;;27.42;12.98;;;;;;;0.70;100.00;100440.56;5024802;28;20047;-70
2021/01/26 02:24:45;;;;;;;28.27;13.63;;;;;;;0.72;100.00;100434.31;5054872;28;20091;-70
2021/01/26 02:27:47;;;;;;;31.83;14.60;;;;;;;0.74;100.00;100453.44;5055005;28;20489;-70
2021/01/26 02:31:09;;;;;;;28.80;15.27;;;;;;;0.72;100.00;100455.31;5054712;28;20052;-70
2021/01/26 02:34:18;;;;;;;31.67;16.42;;;;;;;0.72;100.00;100467.59;5055959;28;20051;-70
2021/01/26 02:37:39;;;;;;;32.15;12.60;;;;;;;0.71;100.00;100466.72;5055596;28;20095;-70
2021/01/26 02:40:47;;;;;;;29.77;14.02;;;;;;;0.71;100.00;100460.63;5055435;28;20094;-70
2021/01/26 02:43:44;;;;;;;29.05;12.50;;;;;;;0.73;100.00;100479.78;5055738;28;20530;-70
2021/01/26 02:46:46;;;;;;;28.55;11.85;;;;;;;0.72;100.00;100468.41;5054682;28;20048;-70
2021/01/26 02:49:45;;;;;;;32.58;16.15;;;;;;;0.71;100.00;100466.72;5054337;28;20055;-70
2021/01/26 02:52:38;;;;;;;32.63;17.08;;;;;;;0.73;100.00;100474.53;5054622;28;20455;-70
2021/01/26 02:55:40;;;;;;;30.30;14.18;;;;;;;0.79;100.00;100475.06;5040476;28;20178;-70
2021/01/26 02:58:37;;;;;;;34.05;16.10;;;;;;;0.79;100.00;100477.69;5055383;28;20457;-70
2021/01/26 03:01:23;;;;;;;26.02;12.30;;;;;;;0.84;100.00;100480.09;5054171;28;20520;-70
2021/01/26 03:04:17;;;;;;;33.13;16.20;;;;;;;0.88;100.00;100490.34;5054167;28;20087;-70
2021/01/26 03:07:02;;;;;;;29.83;15.13;;;;;;;0.93;100.00;100493.56;5054270;28;20047;-70
2021/01/26 03:09:51;;;;;;;29.77;14.63;;;;;;;1.01;100.00;100483.53;5055006;28;20110;-70
2021/01/26 03:12:40;;;;;;;17.50;8.27;;;;;;;1.06;100.00;100493.78;5053958;28;20101;-70
2021/01/26 03:15:32;;;;;;;31.33;15.32;;;;;;;1.09;100.00;100478.72;5039824;28;20055;-70
2021/01/26 03:18:19;;;;;;;29.83;13.77;;;;;;;1.11;100.00;100474.25;5053111;28;20110;-70
2021/01/26 03:21:03;;;;;;;21.65;9.02;;;;;;;1.16;100.00;100466.13;5039899;28;20102;-70
2021/01/26 03:23:58;;;;;;;30.50;13.98;;;;;;;1.18;100.00;100474.78;5055000;28;20548;-70
2021/01/26 03:26:42;;;;;;;27.15;13.05;;;;;;;1.23;100.00;100470.97;5053576;28;20460;-70
2021/01/26 03:29:29;;;;;;;25.42;10.90;;;;;;;1.28;100.00;100476.84;5053507;28;20171;-70
2021/01/26 03:32:22;;;;;;;25.42;10.30;;;;;;;1.29;100.00;100470.66;5053901;28;20110;-70
2021/01/26 03:35:07;;;;;;;23.80;10.95;;;;;;;1.31;100.00;100468.78;5039675;28;20245;-70
2021/01/26 03:37:54;;;;;;;24.63;13.02;;;;;;;1.35;100.00;100470.31;5053427;28;20121;-70
2021/01/26 03:40:39;;;;;;;18.63;7.85;;;;;;;1.35;100.00;100462.44;5053532;28;20051;-69
2021/01/26 03:43:23;;;;;;;20.42;11.57;;;;;;;1.36;100.00;100450.16;5054550;28;20043;-70
2021/01/26 03:46:24;;;;;;;23.65;12.02;;;;;;;1.38;100.00;100459.66;5053096;28;20554;-69
2021/01/26 03:49:32;;;;;;;18.08;9.73;;;;;;;1.39;100.00;100471.88;5053030;28;20052;-69
2021/01/26 03:52:31;;;;;;;22.70;10.10;;;;;;;1.41;100.00;100479.63;5054549;28;20052;-69
2021/01/26 03:55:31;;;;;;;20.63;10.32;;;;;;;1.44;100.00;100477.69;5054497;28;20497;-70
2021/01/26 03:59:08;;;;;;;20.10;9.98;;;;;;;1.51;100.00;100480.84;5039227;28;20048;-70
2021/01/26 04:02:14;;;;;;;22.10;7.70;;;;;;;1.52;100.00;100488.66;5048411;28;20509;-69
2021/01/26 04:05:11;;;;;;;19.13;9.68;;;;;;;1.50;100.00;100480.00;5052875;28;20048;-69
2021/01/26 04:08:00;;;;;;;20.27;10.15;;;;;;;1.53;100.00;100500.84;5052897;28;20079;-69
2021/01/26 04:11:26;;;;;;;16.23;7.20;;;;;;;1.56;100.00;100491.97;5053141;28;20079;-69
2021/01/26 04:14:15;;;;;;;22.90;9.70;;;;;;;1.56;100.00;100503.31;5053481;28;20044;-69
2021/01/26 04:17:20;;;;;;;19.58;8.95;;;;;;;1.56;100.00;100510.34;5053015;28;20095;-69
2021/01/26 04:20:08;;;;;;;15.63;6.75;;;;;;;1.57;100.00;100502.38;5052609;28;20047;-70
2021/01/26 04:22:53;;;;;;;25.70;11.80;;;;;;;1.57;99.71;100489.25;5052900;28;20094;-69
2021/01/26 04:25:43;;;;;;;24.65;10.52;;;;;;;1.60;98.86;100499.59;5052695;28;20202;-69
2021/01/26 04:28:38;;;;;;;22.23;11.38;;;;;;;1.61;99.60;100496.03;5038161;28;20056;-69
2021/01/26 04:31:23;;;;;;;22.05;10.02;;;;;;;1.66;99.05;100508.94;5053624;28;20477;-69
2021/01/26 04:34:06;;;;;;;19.20;9.23;;;;;;;1.68;98.89;100512.31;5052740;28;20095;-70
2021/01/26 04:36:50;;;;;;;;;;;;;;;1.71;98.16;100520.88;5052874;28;20118;-69
2021/01/26 04:39:34;;;;;;;21.73;9.93;;;;;;;1.71;98.09;100518.25;5053460;28;19920;-69
2021/01/26 04:42:21;;;;;;;16.33;8.55;;;;;;;1.67;98.44;100511.47;5052582;28;20264;-69
2021/01/26 04:45:09;;;;;;;17.70;7.57;;;;;;;1.69;98.90;100517.50;5053266;28;20052;-69
2021/01/26 04:48:06;;;;;;;19.60;9.38;;;;;;;1.74;98.12;100519.84;5053409;28;20401;-69
2021/01/26 04:50:55;;;;;;;21.08;9.73;;;;;;;1.71;98.33;100509.53;5053463;28;20128;-69
2021/01/26 04:53:54;;;;;;;11.75;6.07;;;;;;;1.70;98.59;100513.06;5038047;28;20056;-69
2021/01/26 04:56:53;;;;;;;18.55;9.55;;;;;;;1.71;98.85;100509.53;5052386;28;20086;-69
2021/01/26 04:59:49;;;;;;;14.65;6.30;;;;;;;1.71;97.90;100504.25;5052110;28;20512;-69
2021/01/26 05:02:51;;;;;;;11.90;6.60;;;;;;;1.70;97.98;100503.44;5053133;28;20094;-69
2021/01/26 05:05:39;;;;;;;14.38;6.60;;;;;;;1.69;98.28;100522.75;5053002;28;20132;-69
2021/01/26 05:08:30;;;;;;;16.13;7.45;;;;;;;1.68;98.16;100530.72;5051894;28;20099;-69
2021/01/26 05:11:16;;;;;;;14.30;6.60;;;;;;;1.69;98.35;100521.91;5051666;28;20528;-69
2021/01/26 05:14:05;;;;;;;12.93;5.00;;;;;;;1.74;97.11;100520.72;5052180;28;20048;-69
2021/01/26 05:17:00;;;;;;;10.07;4.45;;;;;;;1.73;97.41;100524.28;5051903;28;20079;-68
2021/01/26 05:19:59;;;;;;;11.65;5.30;;;;;;;1.76;96.90;100547.75;5037828;28;20048;-69
2021/01/26 05:22:53;;;;;;;17.88;7.22;;;;;;;1.76;96.94;100532.00;5052356;28;20090;-69
2021/01/26 05:25:37;;;;;;;14.13;7.50;;;;;;;1.75;96.67;100540.81;5052043;28;20148;-69
2021/01/26 05:28:22;;;;;;;14.98;8.20;;;;;;;1.77;97.16;100535.47;5051569;28;20048;-69
2021/01/26 05:31:08;;;;;;;10.85;5.45;;;;;;;1.78;96.18;100527.50;5052773;28;20408;-69
2021/01/26 05:34:11;;;;;;;14.38;7.50;;;;;;;1.76;96.85;100528.53;5051965;28;20084;-69
2021/01/26 05:36:56;;;;;;;12.68;6.07;;;;;;;1.76;96.53;100549.56;5051809;28;20052;-69
2021/01/26 05:39:52;;;;;;;11.50;5.68;;;;;;;1.78;96.23;100547.69;5051886;28;20401;-69
2021/01/26 05:42:36;;;;;;;13.13;5.80;;;;;;;1.77;96.11;100536.31;5055878;28;20098;-69
2021/01/26 05:45:25;;;;;;;17.77;7.80;;;;;;;1.76;96.85;100532.00;5056533;28;20099;-69
2021/01/26 05:48:15;;;;;;;14.38;7.43;;;;;;;1.77;96.78;100528.44;5055717;28;20401;-69
2021/01/26 05:51:19;;;;;;;11.63;5.93;;;;;;;1.79;96.78;100541.50;5056434;28;20126;-69
2021/01/26 05:54:11;;;;;;;14.70;7.47;;;;;;;1.76;96.76;100539.88;5055521;28;20051;-69
2021/01/26 05:56:56;;;;;;;14.77;7.15;;;;;;;1.80;96.65;100556.34;5055446;28;20043;-69
2021/01/26 05:59:40;;;;;;;14.65;6.30;;;;;;;1.83;95.84;100541.25;5055118;28;20084;-69
2021/01/26 06:02:24;;;;;;;14.23;6.53;;;;;;;1.86;95.34;100564.72;5055183;28;20083;-69
2021/01/26 06:05:14;;;;;;;16.00;6.75;;;;;;;1.93;94.86;100562.63;5055444;28;20102;-69
2021/01/26 06:08:12;;;;;;;13.43;7.47;;;;;;;1.93;95.52;100570.50;5056339;28;20071;-69
2021/01/26 06:10:57;;;;;;;12.38;6.45;;;;;;;1.94;94.56;100567.81;5041218;28;20141;-68
2021/01/26 06:13:41;;;;;;;13.75;6.45;;;;;;;1.98;94.17;100577.22;5055963;28;20174;-69
2021/01/26 06:16:25;;;;;;;;;;;;;;;2.02;93.84;100576.13;5055646;28;20090;-69
2021/01/26 06:19:14;;;;;;;8.68;4.60;;;;;;;2.05;93.25;100573.31;5055280;28;19919;-69
2021/01/26 06:21:58;;;;;;;11.40;6.47;;;;;;;2.08;93.15;100578.41;5041003;28;20515;-69
2021/01/26 06:24:42;;;;;;;17.35;7.40;;;;;;;2.08;93.47;100578.41;5055037;28;20113;-69
2021/01/26 06:27:43;;;;;;;14.05;7.07;;;;;;;2.05;93.69;100573.31;5054807;28;20080;-69
2021/01/26 06:30:50;;;;;;;16.77;7.50;;;;;;;2.08;93.36;100588.09;5054426;28;20051;-69
2021/01/26 06:33:37;;;;;;;19.02;7.28;;;;;;;2.08;93.69;100599.44;5055579;28;20074;-69
2021/01/26 06:36:59;;;;;;;13.88;7.30;;;;;;;2.17;93.10;100611.25;5055692;28;20107;-70
2021/01/26 06:39:53;;;;;;;12.18;6.43;;;;;;;2.16;92.66;100617.47;5055428;28;20052;-69
2021/01/26 06:43:07;;;;;;;15.32;7.38;;;;;;;2.12;93.05;100605.38;5054968;28;20048;-69
2021/01/26 06:45:55;;;;;;;16.53;7.30;;;;;;;2.13;93.46;100623.72;5055384;28;20048;-68
2021/01/26 06:48:51;;;;;;;19.48;7.97;;;;;;;2.14;93.45;100620.16;5054299;28;20269;-69
2021/01/26 06:52:11;;;;;;;13.00;6.60;;;;;;;2.18;92.95;100624.31;5054791;28;20071;-69
2021/01/26 06:55:23;;;;;;;15.63;6.57;;;;;;;2.18;93.10;100629.56;5055228;28;20044;-69
2021/01/26 06:58:32;;;;;;;12.57;6.80;;;;;;;2.21;93.09;100637.31;5054983;28;20085;-69
2021/01/26 07:01:46;;;;;;;17.10;5.43;;;;;;;2.22;92.67;100654.78;5055136;28;20599;-70
2021/01/26 07:04:58;;;;;;;10.55;5.68;;;;;;;2.22;93.49;100669.72;5055660;28;20106;-70
2021/01/26 07:07:58;;;;;;;13.05;6.03;;;;;;;2.25;92.64;100680.94;5054961;28;20496;-69
2021/01/26 07:11:20;;;;;;;12.00;4.32;;;;;;;2.22;93.17;100675.84;5055232;28;20107;-69
2021/01/26 07:14:23;;;;;;;15.73;6.70;;;;;;;2.21;93.54;100683.78;5055165;28;20125;-69
2021/01/26 07:17:07;;;;;;;13.82;7.32;;;;;;;2.17;93.59;100677.84;5054812;28;20106;-69
2021/01/26 07:20:04;;;;;;;15.13;7.43;;;;;;;2.22;93.55;100674.97;5053595;28;20524;-69
2021/01/26 07:22:54;;;;;;;12.25;7.15;;;;;;;2.21;93.40;100668.88;5053968;28;20090;-69
2021/01/26 07:26:06;;;;;;;12.90;5.78;;;;;;;2.22;93.26;100670.56;5055011;28;20082;-70
2021/01/26 07:28:55;;;;;;;8.43;5.18;;;;;;;2.21;93.55;100675.91;5054379;28;20098;-69
2021/01/26 07:31:43;;;;;;;14.48;8.20;;;;;;;2.20;93.96;100690.00;5054828;28;20551;-69
2021/01/26 07:34:30;;;;;;;17.92;7.75;;;;;;;2.19;93.90;100681.25;5053646;28;20047;-70
2021/01/26 07:37:19;;;;;;;11.52;6.82;;;;;;;2.23;93.69;100688.06;5054630;28;20178;-69
2021/01/26 07:40:23;;;;;;;13.10;6.22;;;;;;;2.20;93.58;100701.38;5053294;28;20044;-70
2021/01/26 07:43:44;;;;;;;11.30;5.75;;;;;;;2.19;93.93;100712.81;5053619;28;20074;-70
2021/01/26 07:46:48;;;;;;;15.57;6.88;;;;;;;2.19;94.15;100699.66;5037281;28;20086;-69
2021/01/26 07:50:04;;;;;;;10.75;4.93;;;;;;;2.18;93.84;100703.22;5053362;28;20410;-70
2021/01/26 07:52:53;;;;;;;14.38;7.97;;;;;;;2.18;93.50;100705.84;5041296;28;20048;-69
2021/01/26 07:55:47;;;;;;;13.77;7.47;;;;;;;2.19;94.01;100715.44;5053389;28;20575;-70
2021/01/26 07:58:31;;;;;;;13.23;5.90;;;;;;;2.19;93.82;100712.81;5053214;28;20146;-70
2021/01/26 08:01:19;;;;;;;12.23;5.03;;;;;;;2.18;93.99;100716.38;5054287;28;20101;-70
2021/01/26 08:04:04;;;;;;;15.52;7.72;;;;;;;2.21;94.21;100716.22;5052770;28;20105;-70
2021/01/26 08:06:51;;;;;;;12.35;6.47;;;;;;;2.20;94.22;100729.44;5054102;28;20484;-69
2021/01/26 08:09:45;;;;;;;19.48;6.55;;;;;;;2.23;93.65;100731.91;5052914;28;20087;-70
2021/01/26 08:12:31;;;;;;;13.55;5.47;;;;;;;2.20;94.05;100739.97;5052760;28;20047;-70
2021/01/26 08:15:33;;;;;;;12.40;6.97;;;;;;;2.19;94.04;100736.47;5053254;28;20536;-70
2021/01/26 08:18:21;;;;;;;13.65;6.30;;;;;;;2.22;93.66;100746.84;5052921;28;20518;-70
2021/01/26 08:21:41;;;;;;;14.45;7.28;;;;;;;2.23;93.28;100742.44;5052995;28;20043;-70
2021/01/26 08:24:33;;;;;;;10.13;5.93;;;;;;;2.27;92.62;100749.25;5052865;28;20048;-69
2021/01/26 08:27:38;;;;;;;13.32;7.32;;;;;;;2.27;92.50;100747.44;5052755;28;20496;-70
2021/01/26 08:30:46;;;;;;;12.45;6.15;;;;;;;2.26;92.67;100756.28;5053574;28;20516;-69
2021/01/26 08:33:32;;;;;;;17.35;6.60;;;;;;;2.33;92.42;100760.28;5052454;28;20409;-70
2021/01/26 08:36:28;;;;;;;17.95;7.45;;;;;;;2.35;92.50;100761.06;5052662;28;20480;-70
2021/01/26 08:39:15;;;;;;;10.95;6.72;;;;;;;2.40;91.80;100768.69;5052340;28;20044;-70
2021/01/26 08:42:00;;;;;;;13.38;6.13;;;;;;;2.42;91.17;100772.09;5053537;28;20068;-70
2021/01/26 08:44:46;;;;;;;11.10;5.65;;;;;;;2.44;90.76;100776.34;5053596;28;20461;-69
2021/01/26 08:47:48;;;;;;;12.32;6.75;;;;;;;2.43;90.96;100777.28;5052357;28;20052;-70
2021/01/26 08:50:38;;;;;;;13.65;5.65;;;;;;;2.42;90.42;100779.06;5052467;28;20051;-70
2021/01/26 08:53:26;;;;;;;14.82;5.80;;;;;;;2.49;90.21;100769.06;5052452;28;20512;-70
2021/01/26 08:56:13;;;;;;;13.75;5.60;;;;;;;2.53;90.15;100781.13;5053066;28;20082;-70
2021/01/26 08:58:57;;;;;;;7.55;3.53;;;;;;;2.53;89.95;100771.44;5052547;28;20106;-70
2021/01/26 09:01:45;;;;;;;11.20;6.15;;;;;;;2.56;90.45;100775.69;5053043;28;20418;-70
2021/01/26 09:04:28;;;;;;;13.65;6.88;;;;;;;2.61;89.75;100789.47;5052261;28;20496;-70
2021/01/26 09:07:48;;;;;;;7.65;4.63;;;;;;;2.67;88.70;100790.00;5052924;28;20094;-70
2021/01/26 09:10:41;;;;;;;10.85;5.57;;;;;;;2.69;88.42;100793.41;5052244;28;20051;-70
2021/01/26 09:13:27;;;;;;;10.77;4.80;;;;;;;2.63;88.80;100792.88;5052942;28;20119;-70
2021/01/26 09:16:21;;;;;;;14.02;5.90;;;;;;;2.63;89.27;100788.44;5053875;28;20048;-69
2021/01/26 09:19:12;;;;;;;12.40;7.50;;;;;;;2.63;89.08;100820.03;5056217;28;20123;-70
2021/01/26 09:21:56;;;;;;;12.32;7.00;;;;;;;2.59;89.24;100801.84;5056269;28;20043;-70
2021/01/26 09:24:41;;;;;;;10.20;5.60;;;;;;;2.60;88.60;100816.69;5057303;28;20052;-70
2021/01/26 09:27:28;;;;;;;12.35;7.40;;;;;;;2.62;89.77;100833.28;5055941;28;20036;-70
2021/01/26 09:30:15;;;;;;;15.52;5.65;;;;;;;2.63;88.57;100803.41;5056720;28;20051;-69
2021/01/26 09:33:10;;;;;;;13.15;5.75;;;;;;;2.62;88.55;100817.50;5057095;28;20551;-70
2021/01/26 09:36:01;;;;;;;9.57;4.47;;;;;;;2.66;88.46;100824.28;5055745;28;20155;-70
2021/01/26 09:38:48;;;;;;;13.93;7.10;;;;;;;2.62;88.42;100814.88;5056704;28;20052;-70
2021/01/26 09:41:34;;;;;;;16.33;7.82;;;;;;;2.64;88.21;100805.09;5055746;28;20051;-70
2021/01/26 09:44:19;;;;;;;18.05;7.40;;;;;;;2.72;88.34;100823.97;5056822;28;20072;-70
2021/01/26 09:47:06;;;;;;;14.68;7.75;;;;;;;2.85;88.05;100823.22;5055751;28;20555;-70
2021/01/26 09:49:58;;;;;;;16.05;7.15;;;;;;;3.01;86.96;100828.50;5056512;28;20056;-69
2021/01/26 09:52:42;;;;;;;11.43;5.13;;;;;;;3.73;82.17;100827.03;5055455;28;20094;-70
2021/01/26 09:55:28;;;;;;;9.43;5.93;;;;;;;3.62;82.47;100824.16;5055375;28;20504;-70
2021/01/26 09:58:13;;;;;;;11.38;6.93;;;;;;;3.59;81.98;100834.88;5055212;28;20044;-70
2021/01/26 10:00:57;;;;;;;10.65;6.47;;;;;;;3.86;81.88;100830.69;5056268;28;20082;-70
2021/01/26 10:03:42;;;;;;;13.98;5.68;;;;;;;4.24;78.38;100853.00;5055176;28;20052;-70
2021/01/26 10:06:26;;;;;;;9.65;5.28;;;;;;;5.37;73.58;100847.66;5055358;28;20122;-70
2021/01/26 10:09:33;;;;;;;12.65;7.10;;;;;;;6.84;68.99;100821.78;5056153;28;20542;-70
2021/01/26 10:12:28;;;;;;;9.77;5.53;;;;;;;7.23;65.26;100817.16;5055009;28;20086;-70
2021/01/26 10:15:24;;;;;;;10.25;5.22;;;;;;;6.10;67.56;100845.47;5055331;28;20047;-70
2021/01/26 10:18:15;;;;;;;7.88;5.65;;;;;;;5.51;68.88;100863.50;5056165;28;20044;-70
2021/01/26 10:21:03;;;;;;;11.90;6.10;;;;;;;5.43;70.25;100839.34;5055160;28;20115;-70
2021/01/26 10:23:47;;;;;;;18.35;4.63;;;;;;;5.46;70.09;100831.22;5055032;28;20080;-70
2021/01/26 10:26:34;;;;;;;6.18;3.63;;;;;;;4.72;72.11;100860.63;5055158;28;20508;-70
2021/01/26 10:29:24;;;;;;;10.18;5.45;;;;;;;4.64;73.10;100876.09;5055938;28;20098;-70
2021/01/26 10:32:10;;;;;;;10.07;6.00;;;;;;;5.42;69.61;100872.88;5054948;28;20110;-69
2021/01/26 10:34:54;;;;;;;13.27;6.05;;;;;;;5.90;68.57;100867.09;5054922;28;20471;-70
2021/01/26 10:37:39;;;;;;;9.45;5.07;;;;;;;6.21;66.52;100871.19;5054919;28;20040;-70
2021/01/26 10:40:26;;;;;;;10.25;6.10;;;;;;;5.53;70.02;100878.31;5054772;28;20048;-70
2021/01/26 10:43:19;;;;;;;12.52;6.22;;;;;;;6.51;66.20;100888.53;5055818;28;20128;-70
2021/01/26 10:46:03;;;;;;;11.43;6.15;;;;;;;8.28;60.64;100865.03;5055459;28;20041;-70
2021/01/26 10:48:47;;;;;;;9.23;4.88;;;;;;;8.25;57.63;100881.22;5054634;28;20135;-70
2021/01/26 10:51:37;;;;;;;12.80;6.55;;;;;;;8.58;56.61;100884.81;5055275;28;20090;-69
2021/01/26 10:54:22;;;;;;;12.15;6.35;;;;;;;7.66;59.36;100877.63;5054398;28;20525;-70
2021/01/26 10:57:06;;;;;;;8.15;5.00;;;;;;;6.98;61.78;100880.81;5040664;28;20509;-70
2021/01/26 10:59:50;;;;;;;13.63;6.55;;;;;;;6.43;63.80;100882.91;5055188;28;20095;-70
2021/01/26 11:02:34;;;;;;;7.18;4.88;;;;;;;6.37;64.50;100888.59;5055401;28;20107;-70
2021/01/26 11:05:19;;;;;;;13.60;6.40;;;;;;;5.88;66.97;100876.09;5055065;28;20083;-70
2021/01/26 11:08:04;;;;;;;16.30;7.03;;;;;;;5.98;67.45;100875.41;5040258;28;20044;-70
2021/01/26 11:10:48;;;;;;;8.77;5.25;;;;;;;6.03;66.28;100883.00;5040132;28;20090;-70
2021/01/26 11:13:32;;;;;;;13.32;7.00;;;;;;;5.73;68.46;100883.19;5054992;28;20094;-70
2021/01/26 11:16:16;;;;;;;16.00;6.85;;;;;;;5.42;68.50;100870.22;5053937;28;20090;-70
2021/01/26 11:19:01;;;;;;;12.90;6.55;;;;;;;5.17;70.53;100867.44;5054749;28;20140;-70
2021/01/26 11:21:46;;;;;;;14.35;6.78;;;;;;;5.04;71.86;100879.69;5054337;28;20055;-70
2021/01/26 11:24:29;;;;;;;10.80;5.93;;;;;;;4.87;70.76;100883.50;5054045;28;20563;-70
2021/01/26 11:27:13;;;;;;;14.27;6.80;;;;;;;4.73;72.59;100871.13;5053623;28;20573;-70
2021/01/26 11:29:57;;;;;;;12.02;5.18;;;;;;;4.48;73.16;100876.16;5053433;28;20059;-70
2021/01/26 11:32:42;;;;;;;11.43;6.50;;;;;;;4.55;73.59;100866.94;5054519;28;20079;-70
2021/01/26 11:35:27;;;;;;;13.75;6.97;;;;;;;4.40;73.85;100864.38;5053776;28;20048;-70
2021/01/26 11:38:11;;;;;;;10.80;5.45;;;;;;;4.12;74.40;100870.44;5052749;28;20040;-71
2021/01/26 11:40:56;;;;;;;11.65;6.55;;;;;;;4.20;74.92;100862.06;5054772;28;20105;-70
2021/01/26 11:43:39;;;;;;;9.68;5.70;;;;;;;4.18;75.62;100867.41;5053678;28;20098;-70
2021/01/26 11:46:24;;;;;;;12.50;6.03;;;;;;;4.21;75.47;100866.38;5053219;28;20053;-70
2021/01/26 11:49:08;;;;;;;9.93;5.97;;;;;;;4.26;75.26;100861.72;5054252;28;20098;-70
2021/01/26 11:51:52;;;;;;;13.90;8.90;;;;;;;4.48;75.33;100859.50;5054199;28;20099;-70
2021/01/26 11:54:36;;;;;;;13.05;5.93;;;;;;;4.50;73.78;100862.88;5053355;28;20520;-70
2021/01/26 11:57:20;;;;;;;10.38;5.60;;;;;;;5.00;72.67;100865.00;5054359;28;20574;-70
2021/01/26 12:00:07;;;;;;;10.18;5.57;;;;;;;5.37;69.84;100864.41;5054061;28;20559;-70
2021/01/26 12:02:51;;;;;;;11.75;5.32;;;;;;;5.48;69.24;100875.13;5053312;28;20052;-70
2021/01/26 12:05:38;;;;;;;9.25;5.47;;;;;;;5.22;70.54;100860.06;5053863;28;20460;-70
2021/01/26 12:08:23;;;;;;;9.95;4.65;;;;;;;5.04;71.21;100866.50;5054074;28;20036;-71
2021/01/26 12:11:07;;;;;;;10.18;5.75;;;;;;;5.05;70.57;100851.50;5039188;28;20090;-70
2021/01/26 12:13:51;;;;;;;11.10;5.22;;;;;;;5.04;70.42;100869.13;5052807;28;20087;-70
2021/01/26 12:16:35;;;;;;;10.60;4.97;;;;;;;5.33;68.77;100873.44;5054051;28;20090;-70
2021/01/26 12:19:20;;;;;;;9.23;5.55;;;;;;;5.38;69.31;100855.50;5053604;28;20048;-70
2021/01/26 12:22:03;;;;;;;13.80;5.68;;;;;;;5.63;67.16;100860.91;5052924;28;20051;-70
2021/01/26 12:24:48;;;;;;;9.93;4.97;;;;;;;5.41;68.39;100859.72;5052600;28;20520;-70
2021/01/26 12:27:32;;;;;;;11.63;5.97;;;;;;;5.41;67.60;100860.59;5053680;28;20052;-70
2021/01/26 12:30:17;;;;;;;8.15;3.30;;;;;;;5.17;68.39;100861.28;5038272;28;20047;-70
2021/01/26 12:33:01;;;;;;;7.03;4.97;;;;;;;5.14;69.31;100857.03;5052398;28;20052;-70
2021/01/26 12:35:45;;;;;;;6.82;4.93;;;;;;;5.23;68.84;100840.59;5053626;28;20048;-70
2021/01/26 12:38:31;;;;;;;11.70;5.35;;;;;;;5.11;69.73;100851.13;5038303;28;20048;-70
2021/01/26 12:41:15;;;;;;;9.05;3.95;;;;;;;4.89;70.01;100855.19;5052640;28;20051;-69
2021/01/26 12:44:01;;;;;;;7.72;4.03;;;;;;;4.70;70.09;100842.22;5053280;28;20048;-69
2021/01/26 12:46:45;;;;;;;9.18;3.70;;;;;;;4.89;69.41;100839.34;5052132;28;20048;-70
2021/01/26 12:49:29;;;;;;;11.05;4.25;;;;;;;5.01;68.60;100848.19;5052827;28;20080;-70
2021/01/26 12:52:14;;;;;;;9.63;4.95;;;;;;;5.22;68.51;100838.91;5052187;28;20098;-70
2021/01/26 12:54:58;;;;;;;7.90;4.97;;;;;;;5.48;67.73;100838.13;5052215;28;20094;-70
2021/01/26 12:57:42;;;;;;;10.70;5.10;;;;;;;5.59;66.49;100827.69;5053402;28;20406;-70
2021/01/26 13:00:26;;;;;;;6.97;4.32;;;;;;;5.56;67.46;100827.03;5052342;28;20113;-70
2021/01/26 13:03:10;;;;;;;7.25;5.18;;;;;;;6.13;65.17;100825.84;5052311;28;20052;-70
2021/01/26 13:05:54;;;;;;;;;;;;;;;5.78;64.12;100837.91;5052670;28;20047;-70
2021/01/26 13:08:38;;;;;;;8.03;4.73;;;;;;;5.86;63.82;100819.78;5052942;28;19923;-70
2021/01/26 13:11:22;;;;;;;9.20;4.35;;;;;;;6.21;63.52;100829.72;5052975;28;20507;-70